Terminal Aerodrome Forecast
Issued by NWS

Home | Current Version | Previous Version | Text Only | Print | Product List | Glossary On
Versions: 1 2 3 4 5 6 7 8 9 10 11 12 13 14 15 16 17 18
000
FTUS44 KEPZ 200500
TAFTCS
TAF
KTCS 200530Z 2006/2106 30006KT P6SM FEW040 FEW250
      TEMPO 2009/2013 2SM BR SCT007
     FM201800 17009KT P6SM SCT050 SCT250
     FM210400 29007KT P6SM SCT060 SCT250=

USA.gov is the U.S. government's official web portal to all federal, state and local government web resources and services.